Terminal Aerodrome Forecast
Issued by NWS Sterling, VA

Current Version | Previous Version | Graphics & Text | Print | Product List | Glossary On
Versions: 1 2 3 4 5 6 7 8 9 10 11 12 13 14
588
FTUS41 KLWX 290527
TAFMRB
TAF
KMRB 290527Z 2906/3006 00000KT P6SM SCT050
     FM291000 00000KT 5SM BR SCT150
     FM291300 00000KT P6SM SCT150
     FM291800 01004KT P6SM BKN060
     FM292300 01004KT P6SM SCT060=

USA.gov is the U.S. government's official web portal to all federal, state and local government web resources and services.